地図

経路データ

SID SEASON NUMBER BASIN SUBBASIN NAME ISO_TIME NATURE LAT LON WMO_WIND WMO_PRES WMO_AGENCY TRACK_TYPE DIST2LAND LANDFALL IFLAG USA_AGENCY USA_ATCF_ID USA_LAT USA_LON USA_RECORD USA_STATUS USA_WIND USA_PRES USA_SSHS USA_R34_NE USA_R34_SE USA_R34_SW USA_R34_NW USA_R50_NE USA_R50_SE USA_R50_SW USA_R50_NW USA_R64_NE USA_R64_SE USA_R64_SW USA_R64_NW USA_POCI USA_ROCI USA_RMW USA_EYE TOKYO_LAT TOKYO_LON TOKYO_GRADE TOKYO_WIND TOKYO_PRES TOKYO_R50_DIR TOKYO_R50_LONG TOKYO_R50_SHORT TOKYO_R30_DIR TOKYO_R30_LONG TOKYO_R30_SHORT TOKYO_LAND CMA_LAT CMA_LON CMA_CAT CMA_WIND CMA_PRES HKO_LAT HKO_LON HKO_CAT HKO_WIND HKO_PRES NEWDELHI_LAT NEWDELHI_LON NEWDELHI_GRADE NEWDELHI_WIND NEWDELHI_PRES NEWDELHI_CI NEWDELHI_DP NEWDELHI_POCI REUNION_LAT REUNION_LON REUNION_TYPE REUNION_WIND REUNION_PRES REUNION_TNUM REUNION_CI REUNION_RMW REUNION_R34_NE REUNION_R34_SE REUNION_R34_SW REUNION_R34_NW REUNION_R50_NE REUNION_R50_SE REUNION_R50_SW REUNION_R50_NW REUNION_R64_NE REUNION_R64_SE REUNION_R64_SW REUNION_R64_NW BOM_LAT BOM_LON BOM_TYPE BOM_WIND BOM_PRES BOM_TNUM BOM_CI BOM_RMW BOM_R34_NE BOM_R34_SE BOM_R34_SW BOM_R34_NW BOM_R50_NE BOM_R50_SE BOM_R50_SW BOM_R50_NW BOM_R64_NE BOM_R64_SE BOM_R64_SW BOM_R64_NW BOM_ROCI BOM_POCI BOM_EYE BOM_POS_METHOD BOM_PRES_METHOD NADI_LAT NADI_LON NADI_CAT NADI_WIND NADI_PRES WELLINGTON_LAT WELLINGTON_LON WELLINGTON_WIND WELLINGTON_PRES DS824_LAT DS824_LON DS824_STAGE DS824_WIND DS824_PRES TD9636_LAT TD9636_LON TD9636_STAGE TD9636_WIND TD9636_PRES TD9635_LAT TD9635_LON TD9635_WIND TD9635_PRES TD9635_ROCI NEUMANN_LAT NEUMANN_LON NEUMANN_CLASS NEUMANN_WIND NEUMANN_PRES MLC_LAT MLC_LON MLC_CLASS MLC_WIND MLC_PRES USA_GUST BOM_GUST BOM_GUST_PER REUNION_GUST REUNION_GUST_PER USA_SEAHGT USA_SEARAD_NE USA_SEARAD_SE USA_SEARAD_SW USA_SEARAD_NW STORM_SPEED STORM_DIR
1917349S18164 1918 53 SP MM NOT_NAMED 1917-12-14 23:00:00 NR -17.7000 163.600 main 284 284 __________O___ -1 -17.7000 163.600 7 26 271
1917349S18164 1918 53 SP MM NOT_NAMED 1917-12-15 00:00:00 NR -17.6915 163.149 main 298 298 __________P___ -1 -17.6915 163.149 7 26 271
1917349S18164 1918 53 SP MM NOT_NAMED 1917-12-15 03:00:00 NR -17.6657 161.793 main 369 369 __________P___ -1 -17.6657 161.793 7 26 271
1917349S18164 1918 53 SP MM NOT_NAMED 1917-12-15 06:00:00 NR -17.6521 160.426 main 477 477 __________P___ -1 -17.6521 160.426 7 26 270
1917349S18164 1918 53 SP EA NOT_NAMED 1917-12-15 09:00:00 NR -17.6668 159.040 main 600 600 __________P___ -1 -17.6668 159.040 7 27 269
1917349S18164 1918 53 SP EA NOT_NAMED 1917-12-15 11:00:00 NR -17.7000 158.100 main 685 685 __________O___ -1 -17.7000 158.100 7 27 268
1917349S18164 1918 53 SP EA NOT_NAMED 1917-12-15 12:00:00 NR -17.7252 157.624 main 732 732 __________P___ -1 -17.7252 157.624 7 27 266
1917349S18164 1918 53 SP EA NOT_NAMED 1917-12-15 15:00:00 NR -17.8327 156.203 main 770 658 __________P___ -1 -17.8327 156.203 7 27 264
1917349S18164 1918 53 SP EA NOT_NAMED 1917-12-15 18:00:00 NR -17.9811 154.854 main 658 564 __________P___ -1 -17.9811 154.854 7 24 262
1917349S18164 1918 53 SP EA NOT_NAMED 1917-12-15 21:00:00 NR -18.1630 153.664 main 564 494 __________P___ -1 -18.1630 153.664 7 22 260
1917349S18164 1918 53 SP EA NOT_NAMED 1917-12-15 23:00:00 NR -18.3000 153.000 main 494 475 __________O___ -1 -18.3000 153.000 7 18 258
1917349S18164 1918 53 SP EA NOT_NAMED 1917-12-16 00:00:00 NR -18.3568 152.723 main 461 400 __________P___ -1 -18.3568 152.723 7 14 255
1917349S18164 1918 53 SP EA NOT_NAMED 1917-12-16 03:00:00 NR -18.5472 152.060 main 400 337 __________P___ -1 -18.5472 152.060 7 12 249
1917349S18164 1918 53 SP EA NOT_NAMED 1917-12-16 06:00:00 NR -18.7799 151.587 main 337 284 __________P___ -1 -18.7799 151.587 7 10 237
1917349S18164 1918 53 SP EA NOT_NAMED 1917-12-16 09:00:00 NR -19.0692 151.223 main 284 255 __________P___ -1 -19.0692 151.223 7 9 227
1917349S18164 1918 53 SP EA NOT_NAMED 1917-12-16 11:00:00 NR -19.3000 151.000 main 255 232 __________O___ -1 -19.3000 151.000 7 11 227
1917349S18164 1918 53 SP EA NOT_NAMED 1917-12-16 12:00:00 NR -19.4281 150.813 main 232 165 __________P___ -1 -19.4281 150.813 7 13 231
1917349S18164 1918 53 SP EA NOT_NAMED 1917-12-16 15:00:00 NR -19.8620 150.258 main 160 96 __________P___ -1 -19.8620 150.258 7 13 226
1917349S18164 1918 53 SP EA NOT_NAMED 1917-12-16 18:00:00 NR -20.3481 149.794 main 96 45 __________P___ -1 -20.3481 149.794 7 12 215
1917349S18164 1918 53 SP EA NOT_NAMED 1917-12-16 21:00:00 NR -20.8590 149.523 main 38 30 __________P___ -1 -20.8590 149.523 7 11 198
1917349S18164 1918 53 SP EA NOT_NAMED 1917-12-16 23:00:00 NR -21.2000 149.500 main 30 23 __________O___ -1 -21.2000 149.500 7 10 178
1917349S18164 1918 53 SP EA NOT_NAMED 1917-12-17 00:00:00 NR -21.3791 149.551 main 30 20 __________P___ -1 -21.3791 149.551 7 12 152
1917349S18164 1918 53 SP EA NOT_NAMED 1917-12-17 03:00:00 NR -21.9254 149.912 main 35 0 __________P___ -1 -21.9254 149.912 7 14 140
1917349S18164 1918 53 SP EA NOT_NAMED 1917-12-17 06:00:00 NR -22.4437 150.512 main 0 0 __________P___ -1 -22.4437 150.512 7 16 127
1917349S18164 1918 53 SP EA NOT_NAMED 1917-12-17 09:00:00 NR -22.8803 151.262 main 51 51 __________P___ -1 -22.8803 151.262 7 16 119
1917349S18164 1918 53 SP EA NOT_NAMED 1917-12-17 11:00:00 NR -23.1000 151.800 main 102 102 __________O___ -1 -23.1000 151.800 7 16 112
1917349S18164 1918 53 SP EA NOT_NAMED 1917-12-17 12:00:00 NR -23.1790 152.048 main 102 102 __________P___ -1 -23.1790 152.048 7 15 103
1917349S18164 1918 53 SP EA NOT_NAMED 1917-12-17 15:00:00 NR -23.3244 152.847 main 135 135 __________P___ -1 -23.3244 152.847 7 15 97
1917349S18164 1918 53 SP EA NOT_NAMED 1917-12-17 18:00:00 NR -23.3629 153.681 main 161 161 __________P___ -1 -23.3629 153.681 7 15 90
1917349S18164 1918 53 SP EA NOT_NAMED 1917-12-17 21:00:00 NR -23.3350 154.496 main 207 207 __________P___ -1 -23.3350 154.496 7 15 87
1917349S18164 1918 53 SP EA NOT_NAMED 1917-12-17 23:00:00 NR -23.3000 155.000 main 240 240 __________O___ -1 -23.3000 155.000 7 13 87
1917349S18164 1918 53 SP EA NOT_NAMED 1917-12-18 00:00:00 NR -23.2984 155.222 main 255 255 __________P___ -1 -23.2984 155.222 7 12 88
1917349S18164 1918 53 SP EA NOT_NAMED 1917-12-18 03:00:00 NR -23.2734 155.838 main 304 304 __________P___ -1 -23.2734 155.838 7 11 86
1917349S18164 1918 53 SP EA NOT_NAMED 1917-12-18 06:00:00 NR -23.2234 156.401 main 361 361 __________P___ -1 -23.2234 156.401 7 10 83
1917349S18164 1918 53 SP EA NOT_NAMED 1917-12-18 09:00:00 NR -23.1541 156.940 main 406 406 __________P___ -1 -23.1541 156.940 7 10 82
1917349S18164 1918 53 SP EA NOT_NAMED 1917-12-18 11:00:00 NR -23.1000 157.300 main 448 448 __________O___ -1 -23.1000 157.300 7 10 82
1917349S18164 1918 53 SP EA NOT_NAMED 1917-12-18 12:00:00 NR -23.0812 157.474 main 466 466 __________P___ -1 -23.0812 157.474 7 10 83
1917349S18164 1918 53 SP EA NOT_NAMED 1917-12-18 15:00:00 NR -23.0175 157.989 main 517 517 __________P___ -1 -23.0175 157.989 7 10 81
1917349S18164 1918 53 SP EA NOT_NAMED 1917-12-18 18:00:00 NR -22.9320 158.528 main 568 568 __________P___ -1 -22.9320 158.528 7 11 79
1917349S18164 1918 53 SP EA NOT_NAMED 1917-12-18 21:00:00 NR -22.8097 159.135 main 578 528 __________P___ -1 -22.8097 159.135 7 12 77
1917349S18164 1918 53 SP EA NOT_NAMED 1917-12-18 23:00:00 NR -22.7000 159.600 main 528 504 __________O___ -1 -22.7000 159.600 7 14 75
1917349S18164 1918 53 SP EA NOT_NAMED 1917-12-19 00:00:00 NR -22.6356 159.858 main 496 414 __________P___ -1 -22.6356 159.858 7 16 74
1917349S18164 1918 53 SP MM NOT_NAMED 1917-12-19 03:00:00 NR -22.4052 160.707 main 414 319 __________P___ -1 -22.4052 160.707 7 17 73
1917349S18164 1918 53 SP MM NOT_NAMED 1917-12-19 06:00:00 NR -22.1285 161.642 main 319 217 __________P___ -1 -22.1285 161.642 7 19 72
1917349S18164 1918 53 SP MM NOT_NAMED 1917-12-19 09:00:00 NR -21.8185 162.630 main 217 153 __________P___ -1 -21.8185 162.630 7 20 71
1917349S18164 1918 53 SP MM NOT_NAMED 1917-12-19 11:00:00 NR -21.6000 163.300 main 144 114 __________O___ -1 -21.6000 163.300 7 20 71
1917349S18164 1918 53 SP MM NOT_NAMED 1917-12-19 12:00:00 NR -21.4887 163.635 main 114 15 __________P___ -1 -21.4887 163.635 7 20 70
1917349S18164 1918 53 SP MM NOT_NAMED 1917-12-19 15:00:00 NR -21.1482 164.640 main 10 0 __________P___ -1 -21.1482 164.640 7 20 70
1917349S18164 1918 53 SP MM NOT_NAMED 1917-12-19 18:00:00 NR -20.7988 165.641 main 30 30 __________P___ -1 -20.7988 165.641 7 20 69
1917349S18164 1918 53 SP MM NOT_NAMED 1917-12-19 21:00:00 NR -20.4417 166.638 main 133 133 __________P___ -1 -20.4417 166.638 7 20 69
1917349S18164 1918 53 SP MM NOT_NAMED 1917-12-19 23:00:00 NR -20.2000 167.300 main 191 __________O___ -1 -20.2000 167.300 7 20 69

デジタル台風データ・検索

IBTrACS Databaseについて

本データベースは、米国NOAAが公開する1842年以降の世界の熱帯低気圧のベストトラックデータアーカイブInternational Best Track Archive for Climate Stewardship (IBTrACS)を、ウェブで閲覧しやすい形式に変換したものです。

最終更新日:2021-10-21